Time;durP1;ratioP1;P1;durP2;ratioP2;P2;SDS_P1;SDS_P2;PMS_P1;PMS_P2;Temp;Humidity;BMP_temperature;BMP_pressure;BME280_temperature;BME280_humidity;BME280_pressure;Samples;Min_cycle;Max_cycle;Signal;HPM_P1;HPM_P2
2023/09/14 00:00:31;;;;;;;8.57;6.13;;;;;;;16.70;100.00;97986.97;5181601;27;20046;-60
2023/09/14 00:02:58;;;;;;;12.18;6.22;;;;;;;16.39;100.00;98050.19;5181322;27;20190;-61
2023/09/14 00:05:24;;;;;;;14.18;5.93;;;;;;;16.20;100.00;98079.47;5181012;27;20054;-60
2023/09/14 00:07:50;;;;;;;13.25;7.03;;;;;;;16.23;100.00;98100.72;5180985;27;20046;-61
2023/09/14 00:10:17;;;;;;;11.55;6.45;;;;;;;16.21;100.00;98114.19;5181134;27;20145;-60
2023/09/14 00:12:43;;;;;;;9.85;6.88;;;;;;;16.19;100.00;98107.53;5181317;27;20057;-60
2023/09/14 00:15:09;;;;;;;9.15;6.32;;;;;;;16.35;100.00;98107.56;5180773;27;20077;-61
2023/09/14 00:17:35;;;;;;;12.57;6.45;;;;;;;16.39;100.00;98108.28;5181379;27;20406;-59
2023/09/14 00:20:01;;;;;;;12.10;6.63;;;;;;;16.40;100.00;98064.81;5181222;27;20089;-60
2023/09/14 00:22:27;;;;;;;12.15;6.47;;;;;;;16.26;100.00;98076.16;5181090;27;20050;-60
2023/09/14 00:24:53;;;;;;;14.48;10.30;;;;;;;16.10;100.00;98123.94;5180767;27;20054;-60
2023/09/14 00:27:19;;;;;;;10.45;6.82;;;;;;;16.25;100.00;98100.28;5181299;27;20387;-60
2023/09/14 00:29:46;;;;;;;13.25;6.20;;;;;;;16.00;100.00;98192.06;5180630;27;20368;-60
2023/09/14 00:32:12;;;;;;;12.40;6.22;;;;;;;16.04;100.00;98175.41;5180810;27;20046;-61
2023/09/14 00:34:38;;;;;;;9.43;6.30;;;;;;;16.07;100.00;98208.50;5180758;27;20081;-61
2023/09/14 00:37:04;;;;;;;12.10;6.30;;;;;;;16.04;100.00;98225.16;5180405;27;20058;-61
2023/09/14 00:39:30;;;;;;;11.27;6.68;;;;;;;16.05;100.00;98215.66;5179711;27;20046;-60
2023/09/14 00:41:56;;;;;;;13.02;10.55;;;;;;;16.05;100.00;98188.78;5180379;27;20042;-61
2023/09/14 00:44:22;;;;;;;14.18;10.30;;;;;;;15.96;100.00;98163.69;5180599;27;20058;-61
2023/09/14 00:46:49;;;;;;;11.48;6.43;;;;;;;15.79;100.00;98265.06;5180353;27;20046;-61
2023/09/14 00:49:15;;;;;;;8.93;5.97;;;;;;;15.88;100.00;98228.59;5180626;27;20422;-60
2023/09/14 00:51:41;;;;;;;18.90;7.00;;;;;;;15.93;100.00;98258.53;5180196;27;20072;-61
2023/09/14 00:54:08;;;;;;;10.07;6.55;;;;;;;15.82;100.00;98288.31;5180642;27;20149;-60
2023/09/14 00:56:34;;;;;;;13.35;6.70;;;;;;;15.72;100.00;98263.22;5180208;27;20046;-60
2023/09/14 00:59:00;;;;;;;13.30;7.05;;;;;;;15.73;100.00;98299.94;5180656;27;20137;-60
2023/09/14 01:01:27;;;;;;;20.02;7.25;;;;;;;15.79;100.00;98302.97;5180357;27;20103;-61
2023/09/14 01:03:53;;;;;;;13.07;8.02;;;;;;;15.88;100.00;98259.78;5179997;27;20058;-59
2023/09/14 01:06:19;;;;;;;14.40;7.10;;;;;;;15.85;100.00;98248.78;5180341;27;20054;-60
2023/09/14 01:08:44;;;;;;;12.05;7.18;;;;;;;15.66;100.00;98306.38;5180141;27;20122;-60
2023/09/14 01:11:11;;;;;;;18.00;8.35;;;;;;;15.63;100.00;98287.84;5180046;27;20046;-60
2023/09/14 01:13:46;;;;;;;16.42;8.18;;;;;;;15.46;100.00;98333.06;5179800;27;20423;-60
2023/09/14 01:16:21;;;;;;;13.98;6.75;;;;;;;15.67;100.00;98307.16;5180496;27;20046;-61
2023/09/14 01:18:59;;;;;;;11.50;7.07;;;;;;;15.69;100.00;98313.00;5179792;27;20491;-61
2023/09/14 01:21:49;;;;;;;18.98;7.43;;;;;;;15.31;100.00;98349.09;5180268;27;20050;-60
2023/09/14 01:24:23;;;;;;;12.82;6.57;;;;;;;15.52;100.00;98392.94;5179979;27;20272;-60
2023/09/14 01:26:51;;;;;;;9.90;6.32;;;;;;;15.61;100.00;98350.22;5179964;27;20046;-60
2023/09/14 01:29:17;;;;;;;12.00;6.80;;;;;;;15.35;100.00;98393.22;5180062;27;20046;-61
2023/09/14 01:31:43;;;;;;;12.38;7.50;;;;;;;15.58;100.00;98398.81;5179740;27;20057;-61
2023/09/14 01:34:09;;;;;;;12.90;10.82;;;;;;;15.51;100.00;98390.63;5179903;27;20297;-60
2023/09/14 01:36:43;;;;;;;15.57;6.85;;;;;;;15.28;100.00;98408.69;5179460;27;20042;-60
2023/09/14 01:39:11;;;;;;;12.07;7.60;;;;;;;15.42;100.00;98451.88;5180101;27;20056;-62
2023/09/14 01:41:37;;;;;;;15.48;7.32;;;;;;;15.44;100.00;98421.09;5179536;27;20046;-60
2023/09/14 01:44:05;;;;;;;11.13;6.97;;;;;;;15.28;100.00;98388.56;5179858;27;20486;-60
2023/09/14 01:46:32;;;;;;;15.85;6.70;;;;;;;15.30;100.00;98472.56;5179395;27;20050;-60
2023/09/14 01:48:58;;;;;;;20.15;7.03;;;;;;;15.24;100.00;98487.25;5179038;27;20106;-60
2023/09/14 01:51:24;;;;;;;18.00;6.90;;;;;;;15.12;100.00;98487.78;5179626;27;20094;-59
2023/09/14 01:53:50;;;;;;;17.00;7.05;;;;;;;15.07;100.00;98549.75;5179172;27;20148;-61
2023/09/14 01:56:16;;;;;;;18.83;7.78;;;;;;;15.22;100.00;98514.47;5179594;27;20364;-61
2023/09/14 01:58:42;;;;;;;13.27;7.85;;;;;;;15.16;100.00;98507.84;5179193;27;20062;-60
2023/09/14 02:01:08;;;;;;;13.95;10.77;;;;;;;15.18;100.00;98491.66;5179540;27;20173;-61
2023/09/14 02:03:35;;;;;;;16.80;6.82;;;;;;;14.93;100.00;98569.22;5179253;27;20050;-61
2023/09/14 02:06:02;;;;;;;12.95;7.07;;;;;;;14.93;100.00;98644.50;5179480;27;20094;-60
2023/09/14 02:08:29;;;;;;;15.30;7.45;;;;;;;15.06;100.00;98584.84;5179066;27;20058;-60
2023/09/14 02:10:55;;;;;;;17.35;8.10;;;;;;;14.96;100.00;98613.34;5179542;27;20045;-61
2023/09/14 02:13:21;;;;;;;14.85;7.18;;;;;;;14.90;100.00;98620.50;5179118;27;20050;-60
2023/09/14 02:15:47;;;;;;;12.40;6.88;;;;;;;14.74;100.00;98678.94;5179179;27;20141;-60
2023/09/14 02:18:13;;;;;;;13.45;7.05;;;;;;;14.79;100.00;98680.47;5179239;27;20440;-60
2023/09/14 02:20:39;;;;;;;16.67;7.00;;;;;;;14.82;100.00;98652.06;5179103;27;20137;-59
2023/09/14 02:23:05;;;;;;;14.57;6.40;;;;;;;14.68;100.00;98713.66;5179172;27;20137;-60
2023/09/14 02:25:31;;;;;;;10.02;6.38;;;;;;;14.64;100.00;98734.97;5178970;27;20068;-61
2023/09/14 02:27:57;;;;;;;14.65;6.80;;;;;;;14.88;100.00;98680.81;5179163;27;20109;-60
2023/09/14 02:30:26;;;;;;;12.38;11.15;;;;;;;14.82;100.00;98644.56;5178891;27;20050;-60
2023/09/14 02:32:51;;;;;;;13.80;7.30;;;;;;;14.82;100.00;98658.38;5179065;27;20403;-59
2023/09/14 02:35:18;;;;;;;11.48;6.88;;;;;;;14.72;100.00;98681.31;5178614;27;20046;-60
2023/09/14 02:37:44;;;;;;;10.82;6.68;;;;;;;14.70;100.00;98703.03;5179114;27;20145;-60
2023/09/14 02:40:11;;;;;;;11.32;7.40;;;;;;;14.74;100.00;98676.19;5178581;27;20377;-61
2023/09/14 02:42:37;;;;;;;11.88;7.28;;;;;;;14.51;100.00;98791.78;5179029;27;20218;-59
2023/09/14 02:45:05;;;;;;;15.50;7.38;;;;;;;14.46;100.00;98761.81;5178818;27;20061;-60
2023/09/14 02:47:31;;;;;;;13.00;7.63;;;;;;;14.51;100.00;98847.72;5178729;27;20133;-60
2023/09/14 02:49:58;;;;;;;11.77;6.85;;;;;;;14.43;100.00;98867.41;5178818;27;20323;-60
2023/09/14 02:52:25;;;;;;;15.85;7.68;;;;;;;14.63;100.00;98835.47;5178625;27;20137;-59
2023/09/14 02:54:51;;;;;;;17.15;7.70;;;;;;;14.59;100.00;98782.28;5179016;27;20075;-59
2023/09/14 02:57:17;;;;;;;13.68;7.20;;;;;;;14.67;100.00;98767.28;5178566;27;20103;-60
2023/09/14 02:59:42;;;;;;;16.88;8.15;;;;;;;14.49;100.00;98753.53;5178824;27;20129;-60
2023/09/14 03:02:08;;;;;;;12.60;6.78;;;;;;;14.45;100.00;98766.53;5180709;27;20077;-61
2023/09/14 03:04:34;;;;;;;11.18;7.40;;;;;;;14.56;100.00;98783.06;5182412;27;20064;-60
2023/09/14 03:07:00;;;;;;;14.23;7.30;;;;;;;14.45;100.00;98761.03;5181988;27;20406;-60
2023/09/14 03:09:27;;;;;;;11.82;7.22;;;;;;;14.38;100.00;98782.34;5182620;27;20074;-60
2023/09/14 03:11:54;;;;;;;12.32;7.60;;;;;;;14.48;100.00;98782.28;5181842;27;20132;-60
2023/09/14 03:14:20;;;;;;;11.73;6.97;;;;;;;14.23;100.00;98821.00;5182072;27;20057;-61
2023/09/14 03:16:46;;;;;;;16.73;8.43;;;;;;;14.47;100.00;98807.53;5182118;27;20046;-62
2023/09/14 03:19:12;;;;;;;16.70;7.57;;;;;;;14.54;100.00;98760.63;5182013;27;20090;-60
2023/09/14 03:21:38;;;;;;;13.15;8.45;;;;;;;14.33;100.00;98745.72;5182077;27;20042;-59
2023/09/14 03:24:04;;;;;;;11.57;7.28;;;;;;;14.25;100.00;98817.81;5181903;27;20210;-60
2023/09/14 03:26:31;;;;;;;15.27;8.05;;;;;;;14.30;100.00;98798.91;5181895;27;20407;-59
2023/09/14 03:28:57;;;;;;;13.13;7.88;;;;;;;14.23;100.00;98800.88;5181970;27;20050;-61
2023/09/14 03:31:23;;;;;;;13.65;8.15;;;;;;;14.29;100.00;98802.06;5182094;27;20084;-60
2023/09/14 03:33:51;;;;;;;16.67;8.23;;;;;;;14.29;100.00;98796.53;5181555;27;20042;-60
2023/09/14 03:36:17;;;;;;;20.80;7.90;;;;;;;14.31;100.00;98780.41;5182033;27;20057;-61
2023/09/14 03:38:43;;;;;;;15.10;7.85;;;;;;;14.29;100.00;98778.03;5181426;27;20395;-61
2023/09/14 03:41:10;;;;;;;16.85;7.28;;;;;;;14.26;100.00;98751.28;5181900;27;20466;-61
2023/09/14 03:43:37;;;;;;;14.07;7.50;;;;;;;14.29;100.00;98761.47;5181630;27;20061;-61
2023/09/14 03:46:04;;;;;;;19.58;7.97;;;;;;;14.31;100.00;98761.88;5181572;27;20136;-60
2023/09/14 03:48:30;;;;;;;16.70;7.55;;;;;;;14.26;100.00;98759.56;5181444;27;20045;-61
2023/09/14 03:50:58;;;;;;;16.90;7.35;;;;;;;14.32;100.00;98773.69;5181293;27;20053;-60
2023/09/14 03:53:24;;;;;;;11.45;7.70;;;;;;;14.33;100.00;98737.47;5181589;27;20081;-59
2023/09/14 03:55:50;;;;;;;14.00;7.15;;;;;;;14.40;100.00;98716.56;5181249;27;20136;-61
2023/09/14 03:58:16;;;;;;;13.32;7.22;;;;;;;14.25;100.00;98771.75;5181618;27;20387;-61
2023/09/14 04:00:44;;;;;;;12.10;7.03;;;;;;;14.26;100.00;98707.16;5181075;27;20046;-60
2023/09/14 04:03:10;;;;;;;13.77;7.53;;;;;;;14.21;100.00;98723.31;5181557;27;20042;-60
2023/09/14 04:05:36;;;;;;;10.68;7.70;;;;;;;14.17;100.00;98739.88;5180983;27;20050;-62
2023/09/14 04:08:03;;;;;;;12.90;6.90;;;;;;;14.49;100.00;98720.41;5181477;27;20050;-60
2023/09/14 04:10:28;;;;;;;14.48;7.50;;;;;;;14.61;100.00;98624.66;5181228;27;20134;-61
2023/09/14 04:13:17;;;;;;;16.73;7.88;;;;;;;14.63;100.00;98564.31;5180998;27;20072;-61
2023/09/14 04:15:44;;;;;;;14.25;7.00;;;;;;;14.63;100.00;98517.44;5180884;27;20050;-61
2023/09/14 04:18:10;;;;;;;13.05;7.93;;;;;;;14.52;100.00;98515.53;5180996;27;20145;-60
2023/09/14 04:20:35;;;;;;;15.43;7.40;;;;;;;14.94;100.00;98474.94;5180674;27;20050;-60
2023/09/14 04:23:01;;;;;;;11.82;7.60;;;;;;;14.96;100.00;98402.78;5180870;27;20175;-61
2023/09/14 04:25:28;;;;;;;11.98;6.95;;;;;;;14.77;100.00;98347.03;5180969;27;20106;-61
2023/09/14 04:27:54;;;;;;;17.65;7.55;;;;;;;15.48;100.00;98245.06;5180706;27;20046;-61
2023/09/14 04:30:20;;;;;;;13.77;7.22;;;;;;;15.78;100.00;98053.50;5181144;27;20077;-62
2023/09/14 04:32:46;;;;;;;13.77;7.25;;;;;;;15.73;100.00;98032.69;5180533;27;20061;-61
2023/09/14 04:35:12;;;;;;;12.18;6.63;;;;;;;16.13;100.00;97897.13;5181143;27;20079;-61
2023/09/14 04:37:38;;;;;;;10.82;6.50;;;;;;;16.47;100.00;97832.25;5180661;27;20050;-61
2023/09/14 04:40:08;;;;;;;16.85;6.85;;;;;;;16.80;100.00;97798.97;5180525;27;20061;-60
2023/09/14 04:42:34;;;;;;;13.65;10.20;;;;;;;17.08;100.00;97789.81;5180589;27;20086;-62
2023/09/14 04:45:00;;;;;;;14.02;6.90;;;;;;;17.22;100.00;97796.13;5180193;27;20057;-62
2023/09/14 04:47:26;;;;;;;14.68;7.10;;;;;;;17.65;100.00;97817.72;5180625;27;20046;-61
2023/09/14 04:49:53;;;;;;;18.38;6.05;;;;;;;17.53;100.00;97847.00;5180311;27;20153;-60
2023/09/14 04:52:19;;;;;;;17.92;11.68;;;;;;;17.80;100.00;97849.34;5180665;27;20145;-61
2023/09/14 04:54:45;;;;;;;12.07;7.60;;;;;;;18.33;100.00;97918.91;5180009;27;20050;-61
2023/09/14 04:57:11;;;;;;;11.98;6.63;;;;;;;18.25;100.00;97942.56;5180503;27;20106;-61
2023/09/14 04:59:37;;;;;;;12.60;6.32;;;;;;;18.32;100.00;97953.41;5179706;27;20103;-61
2023/09/14 05:02:03;;;;;;;13.98;7.82;;;;;;;18.54;100.00;97963.81;5180543;27;20046;-61
2023/09/14 05:04:29;;;;;;;11.85;7.70;;;;;;;19.23;100.00;98065.84;5179641;27;20056;-60
2023/09/14 05:06:56;;;;;;;17.85;7.80;;;;;;;19.44;100.00;98094.88;5180019;27;20095;-62
2023/09/14 05:09:22;;;;;;;18.23;9.52;;;;;;;19.72;100.00;98159.84;5180377;27;20142;-60
2023/09/14 05:11:48;;;;;;;11.23;6.70;;;;;;;19.95;100.00;98201.13;5179856;27;20125;-62
2023/09/14 05:14:13;;;;;;;16.40;7.10;;;;;;;19.90;100.00;98185.03;5179867;27;20104;-62
2023/09/14 05:16:39;;;;;;;12.82;6.95;;;;;;;19.57;100.00;98144.88;5179752;27;20128;-64
2023/09/14 05:19:05;;;;;;;11.70;6.45;;;;;;;20.52;100.00;98242.84;5179970;27;20141;-62
2023/09/14 05:21:31;;;;;;;12.63;6.95;;;;;;;20.70;100.00;98283.97;5179816;27;20077;-60
2023/09/14 05:23:58;;;;;;;13.63;5.90;;;;;;;20.75;100.00;98302.09;5179427;27;20054;-61
2023/09/14 05:26:23;;;;;;;22.23;7.88;;;;;;;20.57;100.00;98272.13;5179828;27;20129;-62
2023/09/14 05:28:49;;;;;;;17.00;6.30;;;;;;;21.25;100.00;98336.44;5180055;27;20069;-61
2023/09/14 05:31:15;;;;;;;10.02;6.00;;;;;;;21.09;100.00;98331.84;5179557;27;20046;-59
2023/09/14 05:33:41;;;;;;;11.40;6.10;;;;;;;20.88;100.00;98308.38;5179600;27;20328;-60
2023/09/14 05:36:07;;;;;;;9.00;6.43;;;;;;;21.38;100.00;98356.66;5179662;27;20082;-60
2023/09/14 05:38:33;;;;;;;11.20;8.50;;;;;;;21.41;100.00;98324.31;5179504;27;20141;-64
2023/09/14 05:41:00;;;;;;;14.05;5.95;;;;;;;20.60;100.00;98335.28;5179393;27;20137;-62
2023/09/14 05:43:26;;;;;;;10.15;6.47;;;;;;;21.25;100.00;98330.84;5179191;27;20053;-63
2023/09/14 05:45:52;;;;;;;18.67;6.65;;;;;;;21.54;100.00;98358.44;5179579;27;20054;-63
2023/09/14 05:48:18;;;;;;;8.43;5.85;;;;;;;20.34;100.00;98317.88;5179227;27;20050;-61
2023/09/14 05:50:43;;;;;;;11.77;6.57;;;;;;;20.69;100.00;98307.47;5179473;27;20159;-61
2023/09/14 05:53:09;;;;;;;19.15;7.00;;;;;;;20.68;100.00;98281.63;5179094;27;20108;-60
2023/09/14 05:55:35;;;;;;;14.07;9.88;;;;;;;19.76;100.00;98243.94;5179241;27;20361;-59
2023/09/14 05:58:02;;;;;;;10.05;6.85;;;;;;;19.17;100.00;98160.09;5178941;27;20081;-60
2023/09/14 06:00:28;;;;;;;11.77;7.10;;;;;;;19.01;100.00;98116.56;5179204;27;20129;-60
2023/09/14 06:02:54;;;;;;;14.70;6.13;;;;;;;19.52;100.00;98144.22;5178668;27;20061;-62
2023/09/14 06:05:20;;;;;;;13.05;6.25;;;;;;;19.51;100.00;98147.44;5178928;27;20143;-61
2023/09/14 06:07:46;;;;;;;15.52;6.93;;;;;;;19.85;100.00;98168.91;5178848;27;20057;-61
2023/09/14 06:10:12;;;;;;;9.57;6.15;;;;;;;19.10;100.00;98135.34;5178709;27;20074;-60
2023/09/14 06:12:38;;;;;;;11.20;6.72;;;;;;;18.27;100.00;98073.28;5178499;27;20439;-61
2023/09/14 06:15:06;;;;;;;13.40;6.75;;;;;;;18.96;100.00;98058.03;5178485;27;20085;-60
2023/09/14 06:17:32;;;;;;;11.30;6.68;;;;;;;19.11;100.00;98080.56;5178817;27;20133;-61
2023/09/14 06:19:58;;;;;;;17.45;6.97;;;;;;;19.41;100.00;98126.38;5178253;27;20050;-61
2023/09/14 06:22:24;;;;;;;19.40;7.15;;;;;;;19.64;100.00;98164.91;5178528;27;20050;-62
2023/09/14 06:24:49;;;;;;;13.93;7.07;;;;;;;19.83;100.00;98174.19;5178267;27;20391;-63
2023/09/14 06:27:15;;;;;;;18.70;6.80;;;;;;;18.94;100.00;98133.47;5178597;27;20046;-62
2023/09/14 06:29:41;;;;;;;13.63;7.20;;;;;;;18.91;100.00;98100.25;5178255;27;20057;-62
2023/09/14 06:32:08;;;;;;;18.38;7.75;;;;;;;18.74;100.00;98044.09;5178624;27;20046;-61
2023/09/14 06:34:34;;;;;;;12.68;7.55;;;;;;;18.96;100.00;98102.44;5178462;27;20214;-62
2023/09/14 06:37:00;;;;;;;24.52;7.82;;;;;;;18.34;100.00;98000.91;5180589;27;20074;-62
2023/09/14 06:39:25;;;;;;;15.38;7.35;;;;;;;18.75;100.00;98031.75;5182546;27;20400;-61
2023/09/14 06:41:51;;;;;;;16.52;7.35;;;;;;;18.44;100.00;98037.88;5182152;27;20140;-60
2023/09/14 06:44:19;;;;;;;11.73;7.43;;;;;;;18.64;100.00;98070.94;5182289;27;20439;-61
2023/09/14 06:46:45;;;;;;;21.13;8.07;;;;;;;18.56;100.00;98078.72;5182019;27;20050;-63
2023/09/14 06:49:12;;;;;;;16.17;7.95;;;;;;;18.46;100.00;98018.00;5182143;27;20045;-62
2023/09/14 06:51:38;;;;;;;24.63;8.30;;;;;;;18.55;100.00;98045.84;5182034;27;20075;-62
2023/09/14 06:54:04;;;;;;;22.98;10.00;;;;;;;18.05;100.00;97973.31;5182269;27;22009;-62
2023/09/14 06:56:31;;;;;;;17.90;8.55;;;;;;;18.43;100.00;97980.84;5181909;27;20078;-63
2023/09/14 06:58:57;;;;;;;20.05;8.70;;;;;;;18.45;100.00;97994.25;5182239;27;20046;-63
2023/09/14 07:01:23;;;;;;;21.35;13.30;;;;;;;18.52;100.00;97992.00;5181660;27;20380;-63
2023/09/14 07:03:50;;;;;;;19.73;8.57;;;;;;;18.44;100.00;98014.91;5182048;27;20061;-63
2023/09/14 07:06:17;;;;;;;23.42;12.80;;;;;;;18.36;100.00;97989.41;5181754;27;20396;-60
2023/09/14 07:08:43;;;;;;;24.80;8.88;;;;;;;18.27;100.00;97959.53;5181616;27;20133;-60
2023/09/14 07:11:09;;;;;;;15.60;8.32;;;;;;;18.32;100.00;97980.38;5181966;27;20084;-60
2023/09/14 07:13:35;;;;;;;22.92;13.93;;;;;;;18.25;100.00;97978.63;5181758;27;20077;-62
2023/09/14 07:16:03;;;;;;;22.02;9.05;;;;;;;18.08;100.00;97943.91;5181560;27;20050;-64
2023/09/14 07:18:30;;;;;;;18.83;9.40;;;;;;;18.20;100.00;97931.25;5181254;27;20090;-61
2023/09/14 07:20:57;;;;;;;20.77;10.25;;;;;;;18.02;100.00;97910.41;5181675;27;20082;-62
2023/09/14 07:23:25;;;;;;;17.52;9.90;;;;;;;18.06;100.00;97890.88;5181520;27;20141;-63
2023/09/14 07:25:51;;;;;;;18.60;10.02;;;;;;;17.80;100.00;97907.56;5181629;27;20148;-64
2023/09/14 07:28:17;;;;;;;25.95;14.77;;;;;;;17.50;100.00;98061.25;5181275;27;20198;-62
2023/09/14 07:30:43;;;;;;;22.13;10.05;;;;;;;17.02;100.00;98380.53;5181598;27;20064;-60
2023/09/14 07:33:11;;;;;;;29.90;15.63;;;;;;;17.26;100.00;98620.25;5181054;27;20086;-62
2023/09/14 07:35:37;;;;;;;22.15;10.85;;;;;;;17.02;100.00;98793.91;5181327;27;20315;-60
2023/09/14 07:38:03;;;;;;;23.33;10.65;;;;;;;16.77;100.00;98976.97;5181395;27;20050;-60
2023/09/14 07:40:30;;;;;;;23.00;12.63;;;;;;;16.56;100.00;99176.38;5181318;27;20042;-60
2023/09/14 07:42:56;;;;;;;32.00;19.23;;;;;;;16.35;100.00;99227.88;5181427;27;20137;-59
2023/09/14 07:45:22;;;;;;;24.95;12.77;;;;;;;16.27;100.00;99267.06;5181089;27;20423;-61
2023/09/14 07:47:47;;;;;;;33.33;13.50;;;;;;;16.14;100.00;99297.13;5180909;27;20046;-62
2023/09/14 07:50:14;;;;;;;26.15;13.85;;;;;;;16.23;100.00;99301.03;5181256;27;20081;-62
2023/09/14 07:52:41;;;;;;;27.88;14.02;;;;;;;15.99;100.00;99283.34;5181411;27;20096;-62
2023/09/14 07:55:07;;;;;;;32.58;13.27;;;;;;;16.13;100.00;99260.38;5180659;27;20471;-62
2023/09/14 07:57:34;;;;;;;34.50;23.90;;;;;;;16.05;100.00;99233.91;5181281;27;20129;-59
2023/09/14 08:00:01;;;;;;;43.97;24.88;;;;;;;16.13;100.00;99207.84;5180702;27;20046;-60
2023/09/14 08:02:27;;;;;;;42.95;17.92;;;;;;;16.07;100.00;99186.53;5180984;27;20050;-63
2023/09/14 08:04:53;;;;;;;48.10;18.92;;;;;;;15.73;100.00;99162.94;5180956;27;20043;-61
2023/09/14 08:07:19;;;;;;;48.88;18.10;;;;;;;15.45;100.00;99107.72;5180907;27;20309;-61
2023/09/14 08:09:45;;;;;;;41.75;25.60;;;;;;;15.56;100.00;99057.94;5180858;27;20060;-61
2023/09/14 08:12:11;;;;;;;38.47;16.40;;;;;;;15.21;100.00;99026.50;5180799;27;20190;-63
2023/09/14 08:14:37;;;;;;;37.78;16.20;;;;;;;15.39;100.00;99004.34;5180864;27;20122;-64
2023/09/14 08:17:04;;;;;;;28.63;16.08;;;;;;;15.33;100.00;98981.91;5180721;27;20137;-64
2023/09/14 08:19:30;;;;;;;32.95;16.42;;;;;;;15.48;100.00;98980.63;5180736;27;20052;-62
2023/09/14 08:21:55;;;;;;;39.33;16.90;;;;;;;15.57;100.00;98987.69;5180436;27;20045;-62
2023/09/14 08:24:21;;;;;;;42.97;19.55;;;;;;;15.67;100.00;98986.88;5180929;27;20149;-63
2023/09/14 08:26:47;;;;;;;33.08;15.30;;;;;;;15.42;100.00;98979.47;5180743;27;20046;-63
2023/09/14 08:29:13;;;;;;;37.63;18.33;;;;;;;15.53;100.00;98957.34;5180712;27;20149;-64
2023/09/14 08:31:42;;;;;;;53.88;37.75;;;;;;;15.58;100.00;98948.59;5180418;27;20082;-65
2023/09/14 08:34:08;;;;;;;37.75;20.17;;;;;;;15.51;100.00;98921.03;5180325;27;20049;-66
2023/09/14 08:36:34;;;;;;;37.13;20.23;;;;;;;15.15;100.00;98901.88;5180035;27;20050;-64
2023/09/14 08:39:00;;;;;;;41.47;18.65;;;;;;;15.19;100.00;98846.63;5179948;27;20050;-63
2023/09/14 08:41:32;;;;;;;36.70;18.63;;;;;;;15.26;100.00;98818.97;5180349;27;20077;-62
2023/09/14 08:43:59;;;;;;;33.25;17.83;;;;;;;15.41;100.00;98809.41;5180074;27;20053;-61
2023/09/14 08:46:26;;;;;;;41.80;19.05;;;;;;;15.66;100.00;98798.19;5180363;27;20046;-63
2023/09/14 08:48:55;;;;;;;38.90;18.88;;;;;;;16.00;100.00;98805.78;5179963;27;20060;-65
2023/09/14 08:51:27;;;;;;;37.05;18.90;;;;;;;16.17;100.00;98826.16;5180185;27;20276;-64
2023/09/14 08:53:53;;;;;;;40.25;19.48;;;;;;;16.20;100.00;98844.69;5179536;27;20431;-65
2023/09/14 08:56:21;;;;;;;33.15;15.88;;;;;;;16.33;100.00;98854.03;5179963;27;20076;-62
2023/09/14 08:58:48;;;;;;;33.13;18.75;;;;;;;16.52;100.00;98874.00;5179035;27;20137;-62
2023/09/14 09:01:17;;;;;;;38.85;19.95;;;;;;;16.27;100.00;98890.88;5179952;27;20065;-64
2023/09/14 09:03:43;;;;;;;39.35;19.60;;;;;;;16.27;100.00;98882.56;5179832;27;20055;-66
2023/09/14 09:06:10;;;;;;;39.05;20.23;;;;;;;16.39;100.00;98877.31;5179743;27;20057;-64
2023/09/14 09:08:36;;;;;;;35.70;19.83;;;;;;;16.35;100.00;98887.59;5180107;27;20424;-63
2023/09/14 09:11:03;;;;;;;40.20;30.40;;;;;;;16.34;100.00;98877.75;5179522;27;20149;-66
2023/09/14 09:13:33;;;;;;;57.47;29.13;;;;;;;16.25;100.00;98869.13;5180010;27;20136;-64
2023/09/14 09:15:59;;;;;;;44.35;30.45;;;;;;;16.53;100.00;98861.72;5179560;27;20404;-63
2023/09/14 09:18:25;;;;;;;43.67;19.13;;;;;;;16.63;100.00;98869.94;5180009;27;20054;-60
2023/09/14 09:20:52;;;;;;;39.03;17.85;;;;;;;16.50;100.00;98877.19;5179466;27;20396;-64
2023/09/14 09:23:21;;;;;;;49.97;19.88;;;;;;;16.84;100.00;98874.44;5180062;27;20057;-63
2023/09/14 09:25:48;;;;;;;33.40;16.60;;;;;;;16.82;100.00;98898.97;5179440;27;20050;-65
2023/09/14 09:28:15;;;;;;;48.00;18.73;;;;;;;16.73;100.00;98923.59;5179628;27;20050;-62
2023/09/14 09:30:41;;;;;;;51.40;30.25;;;;;;;16.80;100.00;98923.53;5179932;27;20043;-66
2023/09/14 09:33:07;;;;;;;47.28;20.67;;;;;;;16.99;100.00;98919.34;5179357;27;20077;-62
2023/09/14 09:35:34;;;;;;;56.53;23.15;;;;;;;17.05;100.00;98905.84;5179616;27;20308;-62
2023/09/14 09:38:10;;;;;;;42.10;25.45;;;;;;;17.02;100.00;98912.22;5179461;27;20381;-63
2023/09/14 09:40:41;;;;;;;72.70;44.80;;;;;;;17.04;100.00;98927.22;5179526;27;20410;-62
2023/09/14 09:43:07;;;;;;;56.30;25.95;;;;;;;17.16;100.00;98935.00;5179138;27;20056;-66
2023/09/14 09:45:33;;;;;;;59.65;26.25;;;;;;;17.16;100.00;98937.75;5179540;27;20061;-64
2023/09/14 09:48:01;;;;;;;51.15;23.15;;;;;;;17.12;100.00;98931.47;5179045;27;20110;-65
2023/09/14 09:50:27;;;;;;;76.57;33.60;;;;;;;17.17;100.00;98921.91;5179265;27;20137;-63
2023/09/14 09:52:53;;;;;;;56.65;33.55;;;;;;;17.17;100.00;98917.16;5179339;27;20171;-67
2023/09/14 09:55:23;;;;;;;53.70;25.40;;;;;;;17.19;100.00;98930.59;5178957;27;20094;-66
2023/09/14 09:57:51;;;;;;;67.65;46.63;;;;;;;17.27;100.00;98945.16;5179160;27;20292;-65
2023/09/14 10:00:19;;;;;;;64.13;43.25;;;;;;;17.23;100.00;98941.63;5179133;27;20046;-65
2023/09/14 10:02:46;;;;;;;53.20;27.23;;;;;;;17.23;100.00;98931.34;5179323;27;20050;-64
2023/09/14 10:05:12;;;;;;;73.95;46.22;;;;;;;17.33;100.00;98924.88;5179103;27;20054;-66
2023/09/14 10:07:40;;;;;;;62.20;28.83;;;;;;;17.33;100.00;98916.56;5179225;27;20137;-65
2023/09/14 10:10:07;;;;;;;97.20;52.72;;;;;;;17.47;100.00;98914.81;5178580;27;20511;-68
2023/09/14 10:12:37;;;;;;;67.95;29.02;;;;;;;17.49;100.00;98921.47;5179031;27;20136;-66
2023/09/14 10:15:05;;;;;;;72.32;29.30;;;;;;;17.64;100.00;98924.84;5178530;27;20046;-66
2023/09/14 10:17:31;;;;;;;67.18;28.65;;;;;;;17.64;100.00;98931.16;5178451;27;20412;-65
2023/09/14 10:19:58;;;;;;;58.35;28.27;;;;;;;17.80;100.00;98925.03;5178890;27;20050;-66
2023/09/14 10:22:25;;;;;;;55.30;26.08;;;;;;;17.85;100.00;98932.84;5178506;27;20243;-66
2023/09/14 10:24:51;;;;;;;41.15;21.13;;;;;;;17.75;100.00;98942.09;5178280;27;20324;-66
2023/09/14 10:27:17;;;;;;;35.50;20.08;;;;;;;17.75;100.00;98952.41;5178277;27;20069;-64
2023/09/14 10:29:44;;;;;;;35.67;18.80;;;;;;;17.67;100.00;98971.13;5178727;27;20323;-66
2023/09/14 10:32:12;;;;;;;33.35;17.63;;;;;;;17.72;100.00;98984.50;5178436;27;20054;-65
2023/09/14 10:34:39;;;;;;;36.92;18.17;;;;;;;17.70;100.00;98989.72;5178669;27;20046;-63
2023/09/14 10:37:05;;;;;;;23.95;15.35;;;;;;;17.41;100.00;99005.91;5178157;27;20054;-62
2023/09/14 10:39:34;;;;;;;30.73;15.27;;;;;;;17.87;100.00;99035.84;5178374;27;20383;-64
2023/09/14 10:42:00;;;;;;;28.88;16.13;;;;;;;18.13;100.00;99036.28;5177853;27;20137;-62
2023/09/14 10:44:27;;;;;;;29.63;14.98;;;;;;;17.95;100.00;99025.41;5178081;27;20107;-64
2023/09/14 10:46:58;;;;;;;31.25;24.58;;;;;;;18.07;100.00;99029.63;5178635;27;20046;-63
2023/09/14 10:49:28;;;;;;;29.98;17.55;;;;;;;18.04;100.00;99044.31;5178477;27;20050;-63
2023/09/14 10:51:55;;;;;;;30.52;17.20;;;;;;;18.18;100.00;99037.78;5178644;27;20391;-61
2023/09/14 10:54:23;;;;;;;31.17;24.52;;;;;;;18.04;100.00;99045.09;5178235;27;20452;-62
2023/09/14 10:56:49;;;;;;;33.28;19.95;;;;;;;18.19;100.00;99048.44;5178498;27;20046;-61
2023/09/14 10:59:14;;;;;;;26.30;18.17;;;;;;;18.40;100.00;99041.03;5177899;27;20079;-63
2023/09/14 11:01:50;;;;;;;31.98;18.02;;;;;;;18.33;100.00;99058.56;5178275;27;20067;-64
2023/09/14 11:04:18;;;;;;;24.67;17.73;;;;;;;18.43;100.00;99052.06;5177809;27;20050;-64
2023/09/14 11:06:47;;;;;;;35.92;19.25;;;;;;;18.33;100.00;99053.81;5178390;27;20115;-63
2023/09/14 11:09:14;;;;;;;33.10;27.27;;;;;;;18.26;100.00;99062.25;5178043;27;20483;-63
2023/09/14 11:11:41;;;;;;;29.88;16.40;;;;;;;18.12;100.00;99067.97;5178227;27;20301;-62